Sao Lourenco do Sul, Brazil
Current Conditions -  °F | °C
As of 7:00 PM on Sunday 21 Dec 2014 (Local Time) from SBPA Reporting Station
Drizzle Drizzle  
Wind Chill: 72°   Ceiling: 600
Heat Index: 72°   Visibility: 1.8mi
Dew Point: 72°   Wind: 8mph
Humidity: 100%   Direction: 230°SW
Pressure: 29.53"   Gusts: NA
Location:  31.37°S, 51.98°W
Report Text: SBPA 212100Z 23007KT 3000 -DZ BR BKN006 OVC008 22/22 Q1000
Loading
Personal Weather Stations






























Interactive Weather Map New forecast layout! Learn more

10-Day Weather Forecast

Advertisements
Track Severe Weather on mobile